Time;durP1;ratioP1;P1;durP2;ratioP2;P2;SDS_P1;SDS_P2;PMS_P1;PMS_P2;Temp;Humidity;BMP_temperature;BMP_pressure;BME280_temperature;BME280_humidity;BME280_pressure;Samples;Min_cycle;Max_cycle;Signal;HPM_P1;HPM_P2
2023/12/29 00:01:44;;;;;;;6.93;1.70;;;;;;;-148.88;100.00;-17125.47;5066181;28;20021;-81
2023/12/29 00:04:10;;;;;;;7.32;1.95;;;;;;;-148.88;100.00;-17125.47;5048279;28;20021;-82
2023/12/29 00:06:39;;;;;;;6.95;1.80;;;;;;;-148.88;100.00;-17125.47;5049502;28;20582;-82
2023/12/29 00:09:04;;;;;;;6.03;1.83;;;;;;;-148.88;100.00;-17125.47;5067204;28;20021;-82
2023/12/29 00:11:30;;;;;;;4.95;1.10;;;;;;;-148.88;100.00;-17125.47;5066480;28;20024;-82
2023/12/29 00:13:55;;;;;;;8.75;2.25;;;;;;;-148.88;100.00;-17125.47;5049039;28;20029;-82
2023/12/29 00:16:21;;;;;;;4.88;0.90;;;;;;;-148.88;100.00;-17125.47;5066853;28;20027;-82
2023/12/29 00:18:46;;;;;;;5.75;1.15;;;;;;;-148.88;100.00;-17125.47;5065564;28;20035;-82
2023/12/29 00:21:11;;;;;;;8.20;1.80;;;;;;;-148.88;100.00;-17125.47;5079922;22;20552;-88
2023/12/29 00:23:37;;;;;;;4.82;1.60;;;;;;;-148.88;100.00;-17125.47;5053203;28;20570;-88
2023/12/29 00:26:02;;;;;;;3.25;1.00;;;;;;;-148.88;100.00;-17125.47;5035701;28;20483;-88
2023/12/29 00:28:28;;;;;;;6.88;1.85;;;;;;;-148.88;100.00;-17125.47;5053550;28;20021;-89
2023/12/29 00:30:53;;;;;;;6.63;1.67;;;;;;;-148.88;100.00;-17125.47;5035745;28;20052;-89
2023/12/29 00:33:18;;;;;;;3.75;1.17;;;;;;;-148.88;100.00;-17125.47;5052825;28;20025;-88
2023/12/29 00:35:44;;;;;;;7.00;2.30;;;;;;;-148.88;100.00;-17125.47;5053392;28;20048;-89
2023/12/29 00:38:09;;;;;;;7.15;1.90;;;;;;;-148.88;100.00;-17125.47;5052724;28;20017;-89
2023/12/29 00:40:34;;;;;;;5.53;1.15;;;;;;;-148.88;100.00;-17125.47;5053119;28;20065;-89
2023/12/29 00:43:01;;;;;;;8.43;1.90;;;;;;;-148.88;100.00;-17125.47;5035155;28;20107;-90
2023/12/29 00:45:31;;;;;;;6.90;1.65;;;;;;;-148.88;100.00;-17125.47;5035340;28;20052;-90
2023/12/29 00:47:57;;;;;;;7.70;1.80;;;;;;;-148.88;100.00;-17125.47;5054122;28;20091;-88
2023/12/29 00:50:22;;;;;;;6.40;2.10;;;;;;;-148.88;100.00;-17125.47;5036259;28;20127;-87
2023/12/29 00:52:48;;;;;;;3.85;0.88;;;;;;;-148.88;100.00;-17125.47;5035965;28;20021;-88
2023/12/29 00:55:13;;;;;;;7.53;1.10;;;;;;;-148.88;100.00;-17125.47;5053011;28;20025;-90
2023/12/29 00:57:38;;;;;;;10.57;1.98;;;;;;;-148.88;100.00;-17125.47;5035048;28;20021;-89
2023/12/29 01:00:05;;;;;;;6.10;1.70;;;;;;;-148.88;100.00;-17125.47;5052498;28;20037;-90
2023/12/29 01:02:31;;;;;;;9.38;2.10;;;;;;;-148.88;100.00;-17125.47;5035028;28;20063;-88
2023/12/29 01:04:56;;;;;;;8.00;2.00;;;;;;;-148.88;100.00;-17125.47;5052733;28;20045;-89
2023/12/29 01:07:21;;;;;;;4.72;1.60;;;;;;;-148.88;100.00;-17125.47;5034524;28;20024;-90
2023/12/29 01:09:47;;;;;;;5.80;1.90;;;;;;;-148.88;100.00;-17125.47;5052833;28;20551;-89
2023/12/29 01:12:12;;;;;;;4.10;1.08;;;;;;;-148.88;100.00;-17125.47;5052354;28;20029;-89
2023/12/29 01:14:37;;;;;;;3.88;0.90;;;;;;;-148.88;100.00;-17125.47;5052499;28;20059;-89
2023/12/29 01:17:03;;;;;;;10.70;2.00;;;;;;;-148.88;100.00;-17125.47;5052528;28;20051;-89
2023/12/29 01:19:28;;;;;;;7.50;1.85;;;;;;;-148.88;100.00;-17125.47;5034493;28;20024;-88
2023/12/29 01:21:54;;;;;;;6.47;1.63;;;;;;;-148.88;100.00;-17125.47;5052690;28;20024;-87
2023/12/29 01:24:19;;;;;;;10.80;1.83;;;;;;;-148.88;100.00;-17125.47;5055852;28;20399;-88
2023/12/29 01:26:45;;;;;;;2.75;0.80;;;;;;;-148.88;100.00;-17125.47;5056215;28;20396;-89
2023/12/29 01:29:10;;;;;;;8.30;1.73;;;;;;;-148.88;100.00;-17125.47;5056188;28;20037;-89
2023/12/29 01:31:36;;;;;;;5.55;1.70;;;;;;;-148.88;100.00;-17125.47;5038259;28;20475;-87
2023/12/29 01:34:01;;;;;;;1.75;0.70;;;;;;;-148.88;100.00;-17125.47;5055779;28;20429;-89
2023/12/29 01:36:26;;;;;;;6.88;1.77;;;;;;;-148.88;100.00;-17125.47;5037988;28;20159;-89
2023/12/29 01:38:52;;;;;;;4.80;1.00;;;;;;;-148.88;100.00;-17125.47;5038732;28;20017;-88
2023/12/29 01:41:19;;;;;;;7.25;1.80;;;;;;;-148.88;100.00;-17125.47;5056337;28;20041;-89
2023/12/29 01:44:00;;;;;;;8.65;1.55;;;;;;;-148.88;100.00;-17125.47;5055867;28;20036;-88
2023/12/29 01:46:28;;;;;;;6.25;1.60;;;;;;;-148.88;100.00;-17125.47;5057601;28;20029;-89
2023/12/29 01:48:54;;;;;;;4.72;1.38;;;;;;;-148.88;100.00;-17125.47;5055898;28;20024;-90
2023/12/29 01:51:23;;;;;;;4.35;1.10;;;;;;;-148.88;100.00;-17125.47;5037642;28;20025;-90
2023/12/29 01:54:05;;;;;;;5.75;1.92;;;;;;;-148.88;100.00;-17125.47;5038355;28;20059;-89
2023/12/29 01:56:30;;;;;;;7.65;1.45;;;;;;;-148.88;100.00;-17125.47;5037952;28;20056;-90
2023/12/29 01:58:56;;;;;;;4.03;1.00;;;;;;;-148.88;100.00;-17125.47;5038066;28;20035;-89
2023/12/29 02:01:24;;;;;;;7.80;2.13;;;;;;;-148.88;100.00;-17125.47;5037740;28;20074;-91
2023/12/29 02:03:50;;;;;;;5.72;1.50;;;;;;;-148.88;100.00;-17125.47;5037489;28;20024;-88
2023/12/29 02:06:17;;;;;;;7.80;1.98;;;;;;;-148.88;100.00;-17125.47;5037550;28;20029;-89
2023/12/29 02:08:43;;;;;;;2.50;0.82;;;;;;;-148.88;100.00;-17125.47;5055694;28;20103;-89
2023/12/29 02:11:09;;;;;;;3.63;1.15;;;;;;;-148.88;100.00;-17125.47;5037909;28;20056;-89
2023/12/29 02:13:34;;;;;;;8.90;1.77;;;;;;;-148.88;100.00;-17125.47;5037774;28;20051;-90
2023/12/29 02:16:08;;;;;;;6.40;1.90;;;;;;;-148.88;100.00;-17125.47;5055330;28;20021;-90
2023/12/29 02:18:37;;;;;;;9.25;3.42;;;;;;;-148.88;100.00;-17125.47;5036119;28;20032;-88
2023/12/29 02:21:03;;;;;;;8.15;2.85;;;;;;;-148.88;100.00;-17125.47;5037268;28;20614;-89
2023/12/29 02:23:29;;;;;;;7.57;2.05;;;;;;;-148.88;100.00;-17125.47;5055277;28;20434;-88
2023/12/29 02:26:18;;;;;;;2.25;0.80;;;;;;;-148.88;100.00;-17125.47;5037251;28;20032;-89
2023/12/29 02:28:53;;;;;;;7.28;1.20;;;;;;;-148.88;100.00;-17125.47;5055326;28;20429;-90
2023/12/29 02:31:22;;;;;;;5.38;1.80;;;;;;;-148.88;100.00;-17125.47;5055269;28;20025;-89
2023/12/29 02:33:49;;;;;;;4.82;1.10;;;;;;;-148.88;100.00;-17125.47;5066667;28;20133;-90
2023/12/29 02:36:16;;;;;;;3.85;0.95;;;;;;;-148.88;100.00;-17125.47;5074715;28;20391;-88
2023/12/29 02:38:42;;;;;;;4.80;1.45;;;;;;;-148.88;100.00;-17125.47;5074605;28;20012;-89
2023/12/29 02:41:07;;;;;;;6.95;1.58;;;;;;;-148.88;100.00;-17125.47;5074948;28;20437;-89
2023/12/29 02:43:33;;;;;;;5.78;1.30;;;;;;;-148.88;100.00;-17125.47;5074510;28;20028;-89
2023/12/29 02:45:59;;;;;;;4.03;1.20;;;;;;;-148.88;100.00;-17125.47;5056998;28;20020;-88
2023/12/29 02:48:24;;;;;;;4.57;0.90;;;;;;;-148.88;100.00;-17125.47;5057021;28;20016;-88
2023/12/29 02:50:49;;;;;;;6.57;0.70;;;;;;;-148.88;100.00;-17125.47;5074878;28;20055;-89
2023/12/29 02:53:15;;;;;;;5.63;1.10;;;;;;;-148.88;100.00;-17125.47;5056830;28;20044;-89
2023/12/29 02:55:43;;;;;;;4.97;1.25;;;;;;;-148.88;100.00;-17125.47;5057386;28;20067;-91
2023/12/29 02:58:14;;;;;;;1.63;0.88;;;;;;;-148.88;100.00;-17125.47;5074515;28;20024;-88
2023/12/29 03:00:40;;;;;;;5.18;1.58;;;;;;;-148.88;100.00;-17125.47;5075219;28;20033;-88
2023/12/29 03:03:05;;;;;;;4.28;1.52;;;;;;;-148.88;100.00;-17125.47;5075570;28;20086;-87
2023/12/29 03:05:30;;;;;;;3.85;1.08;;;;;;;-148.88;100.00;-17125.47;5098306;28;20033;-90
2023/12/29 03:07:58;;;;;;;8.93;1.83;;;;;;;-148.88;100.00;-17125.47;5081943;28;20033;-88
2023/12/29 03:10:24;;;;;;;10.38;1.70;;;;;;;-148.88;100.00;-17125.47;5097929;28;20025;-89
2023/12/29 03:12:49;;;;;;;6.28;1.00;;;;;;;-148.88;100.00;-17125.47;5086352;28;20047;-89
2023/12/29 03:15:15;;;;;;;6.95;1.75;;;;;;;-148.88;100.00;-17125.47;5074288;28;20024;-89
2023/12/29 03:17:40;;;;;;;3.75;0.88;;;;;;;-148.88;100.00;-17125.47;5074262;28;20028;-89
2023/12/29 03:20:07;;;;;;;6.05;1.70;;;;;;;-148.88;100.00;-17125.47;5056117;28;20487;-89
2023/12/29 03:22:33;;;;;;;5.47;1.70;;;;;;;-148.88;100.00;-17125.47;5073781;28;20028;-89
2023/12/29 03:24:58;;;;;;;7.35;1.60;;;;;;;-148.88;100.00;-17125.47;5073913;28;20025;-89
2023/12/29 03:27:23;;;;;;;4.07;1.00;;;;;;;-148.88;100.00;-17125.47;5073877;28;20406;-89
2023/12/29 03:29:49;;;;;;;7.03;1.90;;;;;;;-148.88;100.00;-17125.47;5074945;28;20020;-89
2023/12/29 03:32:15;;;;;;;9.50;1.40;;;;;;;-148.88;100.00;-17125.47;5073980;28;20016;-88
2023/12/29 03:34:40;;;;;;;5.57;0.80;;;;;;;-148.88;100.00;-17125.47;5073565;28;20052;-89
2023/12/29 03:37:06;;;;;;;7.85;1.70;;;;;;;-148.88;100.00;-17125.47;5073344;28;20025;-88
2023/12/29 03:39:35;;;;;;;7.13;1.40;;;;;;;-148.88;100.00;-17125.47;5073527;28;20028;-88
2023/12/29 03:42:00;;;;;;;4.47;0.75;;;;;;;-148.88;100.00;-17125.47;5055708;28;20093;-89
2023/12/29 03:44:26;;;;;;;3.20;0.73;;;;;;;-148.88;100.00;-17125.47;5073961;28;20470;-89
2023/12/29 03:46:51;;;;;;;5.97;0.95;;;;;;;-148.88;100.00;-17125.47;5073119;28;20435;-88
2023/12/29 03:49:16;;;;;;;6.18;1.27;;;;;;;-148.88;100.00;-17125.47;5073555;28;20442;-89
2023/12/29 03:51:42;;;;;;;6.28;1.33;;;;;;;-148.88;100.00;-17125.47;5055482;28;20118;-89
2023/12/29 03:54:07;;;;;;;2.58;1.00;;;;;;;-148.88;100.00;-17125.47;5055390;28;20498;-89
2023/12/29 03:56:32;;;;;;;6.65;1.63;;;;;;;-148.88;100.00;-17125.47;5073650;28;20103;-89
2023/12/29 03:58:58;;;;;;;5.50;1.38;;;;;;;-148.88;100.00;-17125.47;5073565;28;20467;-90
2023/12/29 04:01:25;;;;;;;2.67;0.85;;;;;;;-148.88;100.00;-17125.47;5055232;28;20070;-89
2023/12/29 04:03:50;;;;;;;4.82;1.52;;;;;;;-148.88;100.00;-17125.47;5073268;28;20107;-90
2023/12/29 04:06:15;;;;;;;2.45;0.73;;;;;;;-148.88;100.00;-17125.47;5073537;28;20094;-89
2023/12/29 04:08:41;;;;;;;4.55;1.70;;;;;;;-148.88;100.00;-17125.47;5073270;28;20084;-89
2023/12/29 04:11:06;;;;;;;4.68;0.80;;;;;;;-148.88;100.00;-17125.47;5073428;28;20028;-88
2023/12/29 04:13:32;;;;;;;4.90;1.60;;;;;;;-148.88;100.00;-17125.47;5073089;28;20470;-89
2023/12/29 04:15:57;;;;;;;4.32;1.40;;;;;;;-148.88;100.00;-17125.47;5073027;28;20030;-89
2023/12/29 04:18:24;;;;;;;6.63;1.50;;;;;;;-148.88;100.00;-17125.47;5073088;28;20043;-88
2023/12/29 04:20:50;;;;;;;4.22;1.02;;;;;;;-148.88;100.00;-17125.47;5073722;28;20545;-88
2023/12/29 04:23:15;;;;;;;5.00;1.45;;;;;;;-148.88;100.00;-17125.47;5073246;28;20032;-88
2023/12/29 04:25:41;;;;;;;4.07;1.98;;;;;;;-148.88;100.00;-17125.47;5072788;28;20108;-88
2023/12/29 04:28:07;;;;;;;4.80;1.83;;;;;;;-148.88;100.00;-17125.47;5072890;28;20021;-89
2023/12/29 04:30:33;;;;;;;10.10;2.72;;;;;;;-148.88;100.00;-17125.47;5072668;28;20039;-88
2023/12/29 04:32:58;;;;;;;3.67;1.77;;;;;;;-148.88;100.00;-17125.47;5063775;28;20411;-89
2023/12/29 04:35:24;;;;;;;3.67;1.88;;;;;;;-148.88;100.00;-17125.47;5052052;28;20032;-90
2023/12/29 04:37:49;;;;;;;7.50;2.42;;;;;;;-148.88;100.00;-17125.47;5052581;28;20502;-89
2023/12/29 04:40:15;;;;;;;14.95;1.92;;;;;;;-148.88;100.00;-17125.47;5052709;28;20067;-89
2023/12/29 04:42:40;;;;;;;11.38;2.55;;;;;;;-148.88;100.00;-17125.47;5052436;28;20041;-88
2023/12/29 04:45:06;;;;;;;11.15;4.00;;;;;;;-148.88;100.00;-17125.47;5052485;28;20481;-89
2023/12/29 04:47:32;;;;;;;8.15;2.25;;;;;;;-148.88;100.00;-17125.47;5052594;28;20087;-88
2023/12/29 04:49:58;;;;;;;9.93;3.72;;;;;;;-148.88;100.00;-17125.47;5052472;28;20029;-88
2023/12/29 04:52:23;;;;;;;8.05;2.40;;;;;;;-148.88;100.00;-17125.47;5052507;28;20029;-88
2023/12/29 04:54:49;;;;;;;10.13;3.97;;;;;;;-148.88;100.00;-17125.47;5052887;28;20070;-89
2023/12/29 04:57:14;;;;;;;10.38;3.85;;;;;;;-148.88;100.00;-17125.47;5054521;28;20021;-89
2023/12/29 04:59:40;;;;;;;8.18;2.47;;;;;;;-148.88;100.00;-17125.47;5056363;28;20067;-90
2023/12/29 05:02:05;;;;;;;9.07;2.33;;;;;;;-148.88;100.00;-17125.47;5056382;28;20096;-89
2023/12/29 05:04:31;;;;;;;4.93;2.20;;;;;;;-148.88;100.00;-17125.47;5056280;28;20452;-89
2023/12/29 05:06:56;;;;;;;10.57;3.97;;;;;;;-148.88;100.00;-17125.47;5056526;28;20048;-89
2023/12/29 05:09:22;;;;;;;11.32;3.97;;;;;;;-148.88;100.00;-17125.47;5056251;28;20028;-89
2023/12/29 05:11:47;;;;;;;11.02;4.03;;;;;;;-148.88;100.00;-17125.47;5056335;28;20032;-89
2023/12/29 05:14:12;;;;;;;5.00;2.13;;;;;;;-148.88;100.00;-17125.47;5058155;28;20021;-88
2023/12/29 05:16:38;;;;;;;7.65;2.40;;;;;;;-148.88;100.00;-17125.47;5056342;28;20037;-86
2023/12/29 05:19:03;;;;;;;14.52;2.70;;;;;;;-148.88;100.00;-17125.47;5056302;28;20032;-88
2023/12/29 05:21:28;;;;;;;6.07;2.97;;;;;;;-148.88;100.00;-17125.47;5056603;28;20040;-88
2023/12/29 05:23:54;;;;;;;8.23;3.53;;;;;;;-148.88;100.00;-17125.47;5056158;28;20044;-88
2023/12/29 05:26:56;;;;;;;8.80;3.38;;;;;;;-148.88;100.00;-17125.47;5038368;28;20021;-87
2023/12/29 05:29:27;;;;;;;11.80;3.90;;;;;;;-148.88;100.00;-17125.47;5057050;28;20468;-88
2023/12/29 05:31:58;;;;;;;7.20;2.55;;;;;;;-148.88;100.00;-17125.47;5039578;28;20087;-88
2023/12/29 05:34:24;;;;;;;6.63;2.22;;;;;;;-148.88;100.00;-17125.47;5038844;28;20055;-88
2023/12/29 05:36:59;;;;;;;8.77;2.90;;;;;;;-148.88;100.00;-17125.47;5039558;28;20483;-89
2023/12/29 05:39:29;;;;;;;9.73;3.10;;;;;;;-148.88;100.00;-17125.47;5038460;28;20036;-88
2023/12/29 05:42:03;;;;;;;9.38;2.03;;;;;;;-148.88;100.00;-17125.47;5038186;28;20116;-88
2023/12/29 05:44:49;;;;;;;;;;;;;;;;;;;;;
2023/12/29 05:47:26;;;;;;;3.30;1.60;;;;;;;-148.88;100.00;-17125.47;5057242;28;20021;-88
2023/12/29 05:50:21;;;;;;;7.00;2.13;;;;;;;-148.88;100.00;-17125.47;5038930;28;20029;-89
2023/12/29 05:52:51;;;;;;;8.77;1.88;;;;;;;-148.88;100.00;-17125.47;5037674;28;20083;-89
2023/12/29 05:55:28;;;;;;;5.75;1.90;;;;;;;-148.88;100.00;-17125.47;5038262;28;20024;-90
2023/12/29 05:57:59;;;;;;;11.07;2.75;;;;;;;-148.88;100.00;-17125.47;5037978;28;20028;-88
2023/12/29 06:00:36;;;;;;;5.88;1.95;;;;;;;-148.88;100.00;-17125.47;5038199;28;20053;-88
2023/12/29 06:03:23;;;;;;;5.97;1.23;;;;;;;-148.88;100.00;-17125.47;5038340;28;20094;-88
2023/12/29 06:06:16;;;;;;;6.03;2.30;;;;;;;-148.88;100.00;-17125.47;5056959;28;20021;-89
2023/12/29 06:08:48;;;;;;;8.25;1.80;;;;;;;-148.88;100.00;-17125.47;5037222;28;20033;-90
2023/12/29 06:11:55;;;;;;;7.57;1.60;;;;;;;-148.88;100.00;-17125.47;5038201;28;20036;-92
2023/12/29 06:14:27;;;;;;;5.57;2.15;;;;;;;-148.88;100.00;-17125.47;5025024;28;20072;-88
2023/12/29 06:16:52;;;;;;;3.85;1.60;;;;;;;-148.88;100.00;-17125.47;5035752;28;20049;-88
2023/12/29 06:19:24;;;;;;;5.25;1.63;;;;;;;-148.88;100.00;-17125.47;5034740;28;20048;-88
2023/12/29 06:21:58;;;;;;;4.35;1.63;;;;;;;-148.88;100.00;-17125.47;5018073;28;20092;-87
2023/12/29 06:24:33;;;;;;;8.68;2.40;;;;;;;-148.88;100.00;-17125.47;5036093;28;20025;-89
2023/12/29 06:27:02;;;;;;;3.45;1.02;;;;;;;-148.88;100.00;-17125.47;5017817;28;20044;-87
2023/12/29 06:29:37;;;;;;;9.00;1.38;;;;;;;-148.88;100.00;-17125.47;5034452;28;20430;-87
2023/12/29 06:32:04;;;;;;;2.95;1.48;;;;;;;-148.88;100.00;-17125.47;5017606;28;20030;-88
2023/12/29 06:34:43;;;;;;;11.95;2.83;;;;;;;-148.88;100.00;-17125.47;5037402;28;20053;-87
2023/12/29 06:37:18;;;;;;;8.45;2.63;;;;;;;-148.88;100.00;-17125.47;5017365;28;20060;-88
2023/12/29 06:39:47;;;;;;;5.97;1.33;;;;;;;-148.88;100.00;-17125.47;5036915;28;20025;-88
2023/12/29 06:42:15;;;;;;;8.43;2.47;;;;;;;-148.88;100.00;-17125.47;5034951;28;20029;-88
2023/12/29 06:44:41;;;;;;;6.85;2.30;;;;;;;-148.88;100.00;-17125.47;5036057;28;20049;-87
2023/12/29 06:47:18;;;;;;;4.85;1.25;;;;;;;-148.88;100.00;-17125.47;5018638;28;20083;-87
2023/12/29 06:49:57;;;;;;;8.02;2.40;;;;;;;-148.88;100.00;-17125.47;5036292;28;20032;-87
2023/12/29 06:52:23;;;;;;;11.05;2.35;;;;;;;-148.88;100.00;-17125.47;5018962;28;20033;-88
2023/12/29 06:54:48;;;;;;;10.32;2.55;;;;;;;-148.88;100.00;-17125.47;5017626;28;20457;-88
2023/12/29 06:57:17;;;;;;;8.10;1.60;;;;;;;-148.88;100.00;-17125.47;5035214;28;20053;-87
2023/12/29 06:59:55;;;;;;;8.73;2.60;;;;;;;-148.88;100.00;-17125.47;5018796;28;20040;-88
2023/12/29 07:02:28;;;;;;;7.63;2.15;;;;;;;-148.88;100.00;-17125.47;5033739;28;20025;-87
2023/12/29 07:04:56;;;;;;;6.55;2.30;;;;;;;-148.88;100.00;-17125.47;5018759;28;20032;-86
2023/12/29 07:07:28;;;;;;;10.48;1.98;;;;;;;-148.88;100.00;-17125.47;5035746;28;20091;-87
2023/12/29 07:10:00;;;;;;;8.73;2.20;;;;;;;-148.88;100.00;-17125.47;5035623;28;20536;-87
2023/12/29 07:12:29;;;;;;;7.53;2.33;;;;;;;-148.88;100.00;-17125.47;5017380;28;20408;-87
2023/12/29 07:15:07;;;;;;;10.13;2.92;;;;;;;-148.88;100.00;-17125.47;5033500;28;20454;-91
2023/12/29 07:17:53;;;;;;;7.47;2.40;;;;;;;-148.88;100.00;-17125.47;5017747;28;20025;-88
2023/12/29 07:20:22;;;;;;;8.00;2.47;;;;;;;-148.88;100.00;-17125.47;5016889;28;20040;-87
2023/12/29 07:22:54;;;;;;;10.93;2.38;;;;;;;-148.88;100.00;-17125.47;5017587;28;20056;-88
2023/12/29 07:25:19;;;;;;;4.93;1.25;;;;;;;-148.88;100.00;-17125.47;5017677;28;20037;-89
2023/12/29 07:27:45;;;;;;;6.80;1.90;;;;;;;-148.88;100.00;-17125.47;5033881;28;20026;-88
2023/12/29 07:30:11;;;;;;;7.18;1.90;;;;;;;-148.88;100.00;-17125.47;5016624;28;20025;-87
2023/12/29 07:32:36;;;;;;;12.27;3.35;;;;;;;-148.88;100.00;-17125.47;5035054;28;20388;-88
2023/12/29 07:35:02;;;;;;;8.95;2.50;;;;;;;-148.88;100.00;-17125.47;5033223;28;20090;-89
2023/12/29 07:37:27;;;;;;;12.35;2.75;;;;;;;-148.88;100.00;-17125.47;5034982;28;20021;-89
2023/12/29 07:39:53;;;;;;;11.45;2.75;;;;;;;-148.88;100.00;-17125.47;5016648;28;20146;-88
2023/12/29 07:42:18;;;;;;;10.68;2.92;;;;;;;-148.88;100.00;-17125.47;5016497;28;20022;-88
2023/12/29 07:44:44;;;;;;;10.35;2.90;;;;;;;-148.88;100.00;-17125.47;5016817;28;20052;-88
2023/12/29 07:47:11;;;;;;;11.80;2.60;;;;;;;-148.88;100.00;-17125.47;5034268;28;20429;-88
2023/12/29 07:49:36;;;;;;;3.60;1.40;;;;;;;-148.88;100.00;-17125.47;5034213;28;20021;-89
2023/12/29 07:52:02;;;;;;;8.07;2.83;;;;;;;-148.88;100.00;-17125.47;5034678;28;20499;-87
2023/12/29 07:54:27;;;;;;;11.77;2.90;;;;;;;-148.88;100.00;-17125.47;5035399;28;20025;-88
2023/12/29 07:56:53;;;;;;;10.93;2.85;;;;;;;-148.88;100.00;-17125.47;5034075;28;20485;-88
2023/12/29 07:59:19;;;;;;;6.50;1.35;;;;;;;-148.88;100.00;-17125.47;5034447;28;20021;-88
2023/12/29 08:01:45;;;;;;;7.32;2.00;;;;;;;-148.88;100.00;-17125.47;5033497;28;20029;-86
2023/12/29 08:04:10;;;;;;;7.22;2.20;;;;;;;-148.88;100.00;-17125.47;5033531;28;20535;-86
2023/12/29 08:06:38;;;;;;;7.03;1.35;;;;;;;-148.88;100.00;-17125.47;5033494;28;20427;-88
2023/12/29 08:09:07;;;;;;;5.40;1.30;;;;;;;-148.88;100.00;-17125.47;5033524;28;20029;-87
2023/12/29 08:11:32;;;;;;;4.03;1.50;;;;;;;-148.88;100.00;-17125.47;5033318;28;20028;-86
2023/12/29 08:13:58;;;;;;;7.65;2.30;;;;;;;-148.88;100.00;-17125.47;5048040;28;20191;-86
2023/12/29 08:16:23;;;;;;;8.55;2.35;;;;;;;-148.88;100.00;-17125.47;5052754;28;20025;-87
2023/12/29 08:18:49;;;;;;;9.82;2.28;;;;;;;-148.88;100.00;-17125.47;5052891;28;20021;-87
2023/12/29 08:21:21;;;;;;;11.38;2.40;;;;;;;-148.88;100.00;-17125.47;5053285;28;20029;-86
2023/12/29 08:23:48;;;;;;;8.30;2.22;;;;;;;-148.88;100.00;-17125.47;5053390;28;20456;-87
2023/12/29 08:26:14;;;;;;;4.07;1.35;;;;;;;-148.88;100.00;-17125.47;5053214;28;20483;-86
2023/12/29 08:28:39;;;;;;;6.28;1.35;;;;;;;-148.88;100.00;-17125.47;5053406;28;20036;-87
2023/12/29 08:31:05;;;;;;;4.45;1.30;;;;;;;-148.88;100.00;-17125.47;5035523;28;20028;-87
2023/12/29 08:33:30;;;;;;;7.55;2.47;;;;;;;-148.88;100.00;-17125.47;5053174;28;20021;-87
2023/12/29 08:36:00;;;;;;;9.40;2.58;;;;;;;-148.88;100.00;-17125.47;5052950;28;20476;-86
2023/12/29 08:38:26;;;;;;;8.05;2.20;;;;;;;-148.88;100.00;-17125.47;5053097;28;20032;-86
2023/12/29 08:40:51;;;;;;;8.00;1.90;;;;;;;-148.88;100.00;-17125.47;5052959;28;20033;-86
2023/12/29 08:43:20;;;;;;;7.63;1.20;;;;;;;-148.88;100.00;-17125.47;5053275;28;20055;-87
2023/12/29 08:45:46;;;;;;;8.23;2.60;;;;;;;-148.88;100.00;-17125.47;5053172;28;20017;-87
2023/12/29 08:48:11;;;;;;;10.00;2.88;;;;;;;-148.88;100.00;-17125.47;5053248;28;20024;-87
2023/12/29 08:50:37;;;;;;;5.50;1.70;;;;;;;-148.88;100.00;-17125.47;5053904;28;20029;-87
2023/12/29 08:53:02;;;;;;;10.10;2.92;;;;;;;-148.88;100.00;-17125.47;5053316;28;20040;-85
2023/12/29 08:55:27;;;;;;;5.28;1.63;;;;;;;-148.88;100.00;-17125.47;5053004;28;20422;-86
2023/12/29 08:57:53;;;;;;;10.38;2.55;;;;;;;-148.88;100.00;-17125.47;5035490;28;20017;-87
2023/12/29 09:00:18;;;;;;;10.38;2.35;;;;;;;-148.88;100.00;-17125.47;5053995;28;20471;-86
2023/12/29 09:02:44;;;;;;;5.93;1.20;;;;;;;-148.88;100.00;-17125.47;5053389;28;20017;-87
2023/12/29 09:05:09;;;;;;;9.30;2.67;;;;;;;-148.88;100.00;-17125.47;5035132;28;20541;-87
2023/12/29 09:07:35;;;;;;;8.98;1.63;;;;;;;-148.88;100.00;-17125.47;5035214;28;20024;-87
2023/12/29 09:10:02;;;;;;;3.92;1.60;;;;;;;-148.88;100.00;-17125.47;5053324;28;20032;-86
2023/12/29 09:12:28;;;;;;;5.57;1.45;;;;;;;-148.88;100.00;-17125.47;5053031;28;20021;-86
2023/12/29 09:14:53;;;;;;;10.52;2.60;;;;;;;-148.88;100.00;-17125.47;5052751;28;20040;-87
2023/12/29 09:17:18;;;;;;;7.05;2.33;;;;;;;-148.88;100.00;-17125.47;5052684;28;20025;-87
2023/12/29 09:19:44;;;;;;;3.58;1.33;;;;;;;-148.88;100.00;-17125.47;5053049;28;20507;-87
2023/12/29 09:22:10;;;;;;;4.57;1.63;;;;;;;-148.88;100.00;-17125.47;5052880;28;20032;-87
2023/12/29 09:24:35;;;;;;;9.38;2.53;;;;;;;-148.88;100.00;-17125.47;5035051;28;20029;-86
2023/12/29 09:27:01;;;;;;;6.50;2.22;;;;;;;-148.88;100.00;-17125.47;5052875;28;20035;-86
2023/12/29 09:29:26;;;;;;;5.88;1.83;;;;;;;-148.88;100.00;-17125.47;5053099;28;20123;-87
2023/12/29 09:31:51;;;;;;;11.05;3.10;;;;;;;-148.88;100.00;-17125.47;5052839;28;20056;-87
2023/12/29 09:34:18;;;;;;;7.30;1.65;;;;;;;-148.88;100.00;-17125.47;5052989;28;20095;-87
2023/12/29 09:36:43;;;;;;;11.02;3.72;;;;;;;-148.88;100.00;-17125.47;5053522;28;20025;-86
2023/12/29 09:39:09;;;;;;;2.88;1.70;;;;;;;-148.88;100.00;-17125.47;5052659;28;20071;-84
2023/12/29 09:41:39;;;;;;;6.80;2.28;;;;;;;-148.88;100.00;-17125.47;5052363;28;20025;-85
2023/12/29 09:44:12;;;;;;;9.00;2.05;;;;;;;-148.88;100.00;-17125.47;5054668;28;20031;-86
2023/12/29 09:46:39;;;;;;;4.35;1.70;;;;;;;-148.88;100.00;-17125.47;5055940;28;20065;-87
2023/12/29 09:49:07;;;;;;;5.20;1.70;;;;;;;-148.88;100.00;-17125.47;5056237;28;20430;-87
2023/12/29 09:51:33;;;;;;;7.28;2.80;;;;;;;-148.88;100.00;-17125.47;5055942;28;20049;-86
2023/12/29 09:54:00;;;;;;;5.43;1.90;;;;;;;-148.88;100.00;-17125.47;5056024;28;20444;-87
2023/12/29 09:56:26;;;;;;;9.88;3.13;;;;;;;-148.88;100.00;-17125.47;5056611;28;20055;-86
2023/12/29 09:58:54;;;;;;;3.40;1.45;;;;;;;-148.88;100.00;-17125.47;5055983;28;20021;-88
2023/12/29 10:01:21;;;;;;;9.75;2.67;;;;;;;-148.88;100.00;-17125.47;5055513;28;20029;-87
2023/12/29 10:03:51;;;;;;;3.95;1.42;;;;;;;-148.88;100.00;-17125.47;5056350;28;20029;-87
2023/12/29 10:06:22;;;;;;;6.40;1.77;;;;;;;-148.88;100.00;-17125.47;5055660;28;20025;-85
2023/12/29 10:08:50;;;;;;;3.85;1.75;;;;;;;-148.88;100.00;-17125.47;5038712;28;20029;-86
2023/12/29 10:11:21;;;;;;;7.15;2.60;;;;;;;-148.88;100.00;-17125.47;5055843;28;20020;-87
2023/12/29 10:13:52;;;;;;;4.97;2.00;;;;;;;-148.88;100.00;-17125.47;5054097;28;20024;-85
2023/12/29 10:16:41;;;;;;;5.78;1.50;;;;;;;-148.88;100.00;-17125.47;5055513;28;20495;-87
2023/12/29 10:19:25;;;;;;;5.38;1.58;;;;;;;-148.88;100.00;-17125.47;5055254;28;20029;-86
2023/12/29 10:22:03;;;;;;;5.30;2.40;;;;;;;-148.88;100.00;-17125.47;5055223;28;20549;-88
2023/12/29 10:24:29;;;;;;;6.13;2.03;;;;;;;-148.88;100.00;-17125.47;5054814;28;20032;-85
2023/12/29 10:26:57;;;;;;;5.43;2.10;;;;;;;-148.88;100.00;-17125.47;5055296;28;20020;-87
2023/12/29 10:29:23;;;;;;;7.25;2.50;;;;;;;-148.88;100.00;-17125.47;5055379;28;20017;-86
2023/12/29 10:31:49;;;;;;;9.25;2.97;;;;;;;-148.88;100.00;-17125.47;5055030;28;20031;-87
2023/12/29 10:34:29;;;;;;;5.10;1.83;;;;;;;-148.88;100.00;-17125.47;5055112;28;20392;-88
2023/12/29 10:36:56;;;;;;;3.28;1.80;;;;;;;-148.88;100.00;-17125.47;5055141;28;20487;-86
2023/12/29 10:39:22;;;;;;;6.70;2.10;;;;;;;-148.88;100.00;-17125.47;5054997;28;20013;-84
2023/12/29 10:41:47;;;;;;;7.38;2.33;;;;;;;-148.88;100.00;-17125.47;5054934;28;20025;-86
2023/12/29 10:44:13;;;;;;;3.65;1.60;;;;;;;-148.88;100.00;-17125.47;5055005;28;20032;-84
2023/12/29 10:46:38;;;;;;;6.45;2.45;;;;;;;-148.88;100.00;-17125.47;5037066;28;20025;-86
2023/12/29 10:49:10;;;;;;;3.30;1.70;;;;;;;-148.88;100.00;-17125.47;5055079;28;20028;-85
2023/12/29 10:51:37;;;;;;;4.78;2.10;;;;;;;-148.88;100.00;-17125.47;5054611;28;20036;-85
2023/12/29 10:54:03;;;;;;;7.35;2.00;;;;;;;-148.88;100.00;-17125.47;5054407;28;20487;-85
2023/12/29 10:56:29;;;;;;;4.70;1.40;;;;;;;-148.88;100.00;-17125.47;5054494;28;20088;-85
2023/12/29 10:58:59;;;;;;;5.95;1.65;;;;;;;-148.88;100.00;-17125.47;5054681;28;20059;-86
2023/12/29 11:01:25;;;;;;;3.00;1.10;;;;;;;-148.88;100.00;-17125.47;5054448;28;20037;-87
2023/12/29 11:04:06;;;;;;;5.38;1.55;;;;;;;-148.88;100.00;-17125.47;5054605;28;20025;-88
2023/12/29 11:06:46;;;;;;;6.32;1.80;;;;;;;-148.88;100.00;-17125.47;5054390;28;20107;-86